Time;durP1;ratioP1;P1;durP2;ratioP2;P2;SDS_P1;SDS_P2;PMS_P1;PMS_P2;Temp;Humidity;BMP_temperature;BMP_pressure;BME280_temperature;BME280_humidity;BME280_pressure;Samples;Min_cycle;Max_cycle;Signal;HPM_P1;HPM_P2
2022/01/29 00:02:20;;;;;;;8.03;7.20;;;4.40;51.10;;;;;;20523;6909;122705;-82
2022/01/29 00:04:49;;;;;;;8.73;7.93;;;4.40;51.20;;;;;;20294;6911;309822;-81
2022/01/29 00:07:14;;;;;;;8.03;7.23;;;4.60;51.60;;;;;;20523;6911;117085;-82
2022/01/29 00:09:43;;;;;;;7.28;6.57;;;4.60;51.30;;;;;;20528;6911;118346;-82
2022/01/29 00:12:06;;;;;;;7.70;7.10;;;4.60;51.20;;;;;;20516;6911;117606;-82
2022/01/29 00:14:33;;;;;;;10.23;7.60;;;4.40;51.50;;;;;;20528;6911;117776;-86
2022/01/29 00:16:58;;;;;;;9.23;8.40;;;4.40;51.50;;;;;;20282;6911;310655;-82
2022/01/29 00:19:24;;;;;;;8.52;7.70;;;4.70;51.70;;;;;;20539;6911;116658;-82
2022/01/29 00:21:49;;;;;;;8.30;7.55;;;4.70;51.20;;;;;;20556;6911;122544;-81
2022/01/29 00:24:15;;;;;;;8.55;7.75;;;4.60;51.30;;;;;;20541;6911;117760;-82
2022/01/29 00:26:41;;;;;;;9.60;8.32;;;4.40;51.70;;;;;;20538;6911;117418;-82
2022/01/29 00:29:18;;;;;;;9.07;8.17;;;4.40;51.70;;;;;;20563;6911;119977;-83
2022/01/29 00:31:37;;;;;;;8.43;7.67;;;4.30;51.80;;;;;;20510;6911;117622;-83
2022/01/29 00:34:02;;;;;;;9.40;8.50;;;4.30;51.90;;;;;;20514;6911;117389;-82
2022/01/29 00:36:28;;;;;;;8.77;7.80;;;4.20;52.00;;;;;;20529;6911;117445;-82
2022/01/29 00:38:53;;;;;;;8.45;7.75;;;4.10;52.10;;;;;;20513;6911;118524;-82
2022/01/29 00:41:19;;;;;;;10.88;9.88;;;4.10;52.20;;;;;;20320;6911;280577;-82
2022/01/29 00:43:45;;;;;;;9.07;8.23;;;4.50;52.10;;;;;;20538;6911;118463;-82
2022/01/29 00:46:11;;;;;;;9.80;8.73;;;4.40;52.30;;;;;;20529;6911;117496;-83
2022/01/29 00:48:36;;;;;;;10.68;9.70;;;4.40;52.10;;;;;;20314;6911;302900;-83
2022/01/29 00:51:03;;;;;;;9.85;9.00;;;4.60;52.20;;;;;;20299;6911;315076;-83
2022/01/29 00:53:29;;;;;;;9.40;8.50;;;4.90;51.60;;;;;;20524;6911;121479;-82
2022/01/29 00:55:54;;;;;;;10.73;9.80;;;4.90;51.30;;;;;;20300;6911;309892;-82
2022/01/29 00:58:20;;;;;;;11.05;10.05;;;5.00;51.30;;;;;;20298;6911;310395;-81
2022/01/29 01:00:46;;;;;;;11.00;10.00;;;5.30;50.80;;;;;;20292;6911;312822;-81
2022/01/29 01:03:11;;;;;;;9.73;8.80;;;5.50;50.10;;;;;;20529;6911;118086;-81
2022/01/29 01:05:36;;;;;;;10.23;8.15;;;5.30;49.90;;;;;;20528;6911;118570;-82
2022/01/29 01:08:02;;;;;;;11.20;10.10;;;5.00;50.40;;;;;;20312;6911;316520;-81
2022/01/29 01:10:28;;;;;;;10.53;9.53;;;5.10;50.80;;;;;;20311;6911;339685;-83
2022/01/29 01:12:53;;;;;;;10.27;9.32;;;5.30;50.50;;;;;;20515;6909;127867;-82
2022/01/29 01:15:19;;;;;;;8.15;7.55;;;5.20;50.30;;;;;;20540;6910;123855;-83
2022/01/29 01:17:44;;;;;;;9.18;8.48;;;4.90;50.70;;;;;;20525;6911;117536;-83
2022/01/29 01:20:10;;;;;;;8.90;8.07;;;4.60;51.00;;;;;;20529;6911;116409;-84
2022/01/29 01:22:37;;;;;;;8.57;7.87;;;4.40;51.40;;;;;;20523;6911;117984;-84
2022/01/29 01:25:03;;;;;;;9.70;7.37;;;4.30;51.70;;;;;;20551;6911;117257;-81
2022/01/29 01:27:28;;;;;;;7.43;6.73;;;4.10;52.00;;;;;;20574;6911;117443;-82
2022/01/29 01:29:56;;;;;;;6.60;6.10;;;4.00;52.40;;;;;;20560;6911;117297;-82
2022/01/29 01:32:23;;;;;;;6.63;6.03;;;4.00;52.40;;;;;;20558;6911;116565;-82
2022/01/29 01:34:52;;;;;;;6.57;5.97;;;3.90;52.50;;;;;;20501;6911;119571;-82
2022/01/29 01:37:27;;;;;;;6.65;6.15;;;3.90;52.50;;;;;;20485;6911;121933;-82
2022/01/29 01:39:41;;;;;;;7.80;6.00;;;3.90;52.60;;;;;;20481;6911;121397;-82
2022/01/29 01:42:07;;;;;;;5.90;5.40;;;3.90;52.60;;;;;;20526;6911;119450;-83
2022/01/29 01:44:37;;;;;;;6.22;5.65;;;3.90;52.70;;;;;;20507;6911;117414;-82
2022/01/29 01:47:02;;;;;;;5.17;4.67;;;3.90;52.60;;;;;;20500;6911;117714;-84
2022/01/29 01:49:28;;;;;;;5.90;5.30;;;3.90;52.60;;;;;;20534;6911;116677;-82
2022/01/29 01:51:55;;;;;;;6.43;5.68;;;3.90;52.60;;;;;;20537;6911;118040;-82
2022/01/29 01:54:20;;;;;;;6.65;6.05;;;3.90;52.60;;;;;;20316;6911;284689;-82
2022/01/29 01:56:46;;;;;;;6.53;5.70;;;4.30;51.70;;;;;;20502;6911;117599;-81
2022/01/29 01:59:12;;;;;;;6.63;6.00;;;4.30;51.70;;;;;;20311;6911;281154;-81
2022/01/29 02:01:38;;;;;;;5.93;5.40;;;4.50;51.10;;;;;;20324;6911;280107;-81
2022/01/29 02:04:03;;;;;;;5.18;4.10;;;4.90;50.10;;;;;;20530;6911;117565;-82
2022/01/29 02:06:29;;;;;;;5.30;4.80;;;5.00;49.90;;;;;;20307;6911;340579;-81
2022/01/29 02:08:59;;;;;;;5.07;4.63;;;5.10;49.80;;;;;;20283;6911;347525;-82
2022/01/29 02:11:22;;;;;;;5.12;4.62;;;5.70;47.80;;;;;;20294;6911;344196;-81
2022/01/29 02:13:47;;;;;;;5.73;5.27;;;5.60;47.70;;;;;;20301;6911;316258;-81
2022/01/29 02:16:13;;;;;;;5.72;4.90;;;5.90;47.20;;;;;;20519;6911;119895;-82
2022/01/29 02:18:38;;;;;;;5.70;5.20;;;5.70;47.30;;;;;;20293;6911;339856;-82
2022/01/29 02:21:05;;;;;;;5.95;5.35;;;5.90;47.40;;;;;;20286;6911;311129;-81
2022/01/29 02:23:31;;;;;;;5.40;5.00;;;5.90;47.00;;;;;;20296;6911;345157;-81
2022/01/29 02:25:56;;;;;;;6.00;5.40;;;6.10;46.70;;;;;;20300;6909;281339;-81
2022/01/29 02:28:21;;;;;;;5.85;5.35;;;6.20;46.30;;;;;;20298;6911;312054;-81
2022/01/29 02:30:47;;;;;;;5.93;5.47;;;6.30;46.10;;;;;;20275;6911;287819;-82
2022/01/29 02:33:13;;;;;;;5.40;5.00;;;6.40;46.00;;;;;;20275;6911;344707;-83
2022/01/29 02:35:41;;;;;;;5.50;5.10;;;6.40;45.70;;;;;;20284;6911;339593;-82
2022/01/29 02:38:07;;;;;;;4.77;4.37;;;6.40;45.80;;;;;;20480;6911;118120;-81
2022/01/29 02:40:36;;;;;;;4.97;4.55;;;6.20;46.10;;;;;;20476;6911;118529;-81
2022/01/29 02:42:58;;;;;;;5.43;4.60;;;5.80;46.60;;;;;;20467;6911;127233;-82
2022/01/29 02:45:26;;;;;;;6.40;5.40;;;5.40;47.20;;;;;;20465;6911;116717;-81
2022/01/29 02:47:49;;;;;;;6.75;6.15;;;5.10;47.70;;;;;;20295;6911;309418;-81
2022/01/29 02:50:15;;;;;;;6.00;5.50;;;5.20;48.20;;;;;;20298;6911;324002;-82
2022/01/29 02:52:41;;;;;;;5.75;4.93;;;5.30;47.60;;;;;;20495;6911;118953;-81
2022/01/29 02:55:07;;;;;;;5.93;5.43;;;5.30;47.60;;;;;;20305;6911;281868;-81
2022/01/29 02:57:32;;;;;;;5.63;5.23;;;5.30;47.60;;;;;;20508;6911;118837;-81
2022/01/29 03:00:00;;;;;;;5.70;5.23;;;5.20;47.70;;;;;;20302;6911;280222;-81
2022/01/29 03:02:24;;;;;;;4.75;4.40;;;5.10;48.30;;;;;;20510;6911;118521;-81
2022/01/29 03:04:51;;;;;;;5.17;4.73;;;5.10;47.80;;;;;;20283;6911;304330;-81
2022/01/29 03:07:16;;;;;;;5.50;5.10;;;5.10;47.60;;;;;;20299;6911;281092;-81
2022/01/29 03:09:42;;;;;;;6.10;5.50;;;5.40;47.20;;;;;;20308;6911;281742;-81
2022/01/29 03:12:08;;;;;;;5.90;5.40;;;5.60;46.90;;;;;;20298;6911;310661;-82
2022/01/29 03:14:34;;;;;;;6.17;5.30;;;5.70;46.70;;;;;;20509;6911;117367;-81
2022/01/29 03:16:59;;;;;;;5.32;4.93;;;5.40;46.80;;;;;;20477;6911;118789;-82
2022/01/29 03:19:25;;;;;;;6.35;5.50;;;5.10;47.40;;;;;;20514;6911;117639;-81
2022/01/29 03:21:51;;;;;;;5.57;5.07;;;4.40;48.40;;;;;;20492;6911;118692;-81
2022/01/29 03:24:17;;;;;;;5.67;5.30;;;4.40;48.40;;;;;;20520;6911;117321;-81
2022/01/29 03:26:42;;;;;;;5.40;4.90;;;4.20;48.90;;;;;;20517;6911;120118;-82
2022/01/29 03:29:08;;;;;;;5.32;4.87;;;3.90;49.60;;;;;;20524;6911;118755;-81
2022/01/29 03:31:34;;;;;;;5.10;4.70;;;3.90;49.60;;;;;;20515;6911;118356;-80
2022/01/29 03:34:00;;;;;;;5.55;5.10;;;3.90;49.90;;;;;;20506;6911;118017;-81
2022/01/29 03:36:26;;;;;;;6.70;6.03;;;4.00;50.40;;;;;;20308;6909;310304;-81
2022/01/29 03:38:51;;;;;;;7.77;7.03;;;4.00;50.40;;;;;;20284;6911;309977;-81
2022/01/29 03:41:17;;;;;;;8.15;6.75;;;4.40;50.00;;;;;;20511;6911;116746;-81
2022/01/29 03:43:48;;;;;;;9.95;8.48;;;4.40;49.50;;;;;;20302;6911;290495;-81
2022/01/29 03:46:10;;;;;;;10.60;8.77;;;4.60;49.50;;;;;;20501;6911;117528;-82
2022/01/29 03:48:35;;;;;;;11.02;8.23;;;4.50;49.30;;;;;;20493;6911;118167;-81
2022/01/29 03:51:01;;;;;;;7.90;7.10;;;4.40;49.50;;;;;;20272;6911;282707;-81
2022/01/29 03:53:26;;;;;;;6.80;6.20;;;4.50;49.60;;;;;;20291;6911;343531;-81
2022/01/29 03:55:52;;;;;;;7.10;6.50;;;4.80;49.10;;;;;;20305;6911;344093;-81
2022/01/29 03:58:18;;;;;;;6.72;6.18;;;5.10;48.60;;;;;;20307;6911;315536;-81
2022/01/29 04:00:43;;;;;;;7.63;7.00;;;5.30;48.10;;;;;;20287;6911;300846;-81
2022/01/29 04:03:09;;;;;;;8.37;7.20;;;5.40;47.70;;;;;;20309;6911;280977;-81
2022/01/29 04:05:34;;;;;;;7.50;6.70;;;5.60;47.30;;;;;;20302;6911;309904;-81
2022/01/29 04:08:00;;;;;;;5.40;4.90;;;5.70;47.10;;;;;;20512;6911;118006;-82
2022/01/29 04:10:28;;;;;;;6.30;5.72;;;5.40;47.20;;;;;;20515;6911;117669;-81
2022/01/29 04:12:53;;;;;;;5.53;5.07;;;5.10;47.90;;;;;;20484;6911;120152;-81
2022/01/29 04:15:17;;;;;;;6.17;5.67;;;4.70;48.40;;;;;;20301;6911;339487;-81
2022/01/29 04:17:42;;;;;;;5.70;5.20;;;4.80;48.70;;;;;;20300;6911;340390;-81
2022/01/29 04:20:08;;;;;;;5.18;4.68;;;5.10;48.30;;;;;;20515;6911;117999;-81
2022/01/29 04:22:58;;;;;;;5.22;4.80;;;5.00;48.30;;;;;;20294;6911;340441;-82
2022/01/29 04:25:24;;;;;;;5.20;4.67;;;5.10;48.30;;;;;;20471;6911;117822;-82
2022/01/29 04:27:49;;;;;;;6.87;5.57;;;5.00;48.30;;;;;;20309;6911;310166;-81
2022/01/29 04:30:27;;;;;;;5.70;5.20;;;5.00;48.30;;;;;;20505;6911;118131;-81
2022/01/29 04:35:06;;;;;;;5.00;4.60;;;4.70;48.60;;;;;;20474;6926;117974;-82
2022/01/29 04:37:32;;;;;;;5.93;4.20;;;4.50;49.00;;;;;;20483;6926;117597;-80
2022/01/29 04:39:57;;;;;;;4.93;3.62;;;4.40;49.40;;;;;;20471;6926;118587;-83
2022/01/29 04:42:23;;;;;;;4.90;4.50;;;4.30;49.60;;;;;;20254;6926;309899;-81
2022/01/29 04:44:48;;;;;;;4.80;4.40;;;4.50;49.20;;;;;;20221;6926;343110;-81
2022/01/29 04:47:14;;;;;;;5.20;4.70;;;4.90;49.10;;;;;;20262;6925;315331;-81
2022/01/29 04:49:40;;;;;;;4.70;4.30;;;5.20;47.60;;;;;;20267;6925;310700;-81
2022/01/29 04:52:05;;;;;;;5.05;4.00;;;5.50;47.00;;;;;;20260;6926;282074;-81
2022/01/29 04:54:32;;;;;;;4.40;4.00;;;5.70;46.50;;;;;;20233;6926;298890;-80
2022/01/29 04:56:57;;;;;;;3.83;3.53;;;5.80;46.10;;;;;;20460;6926;128223;-81
2022/01/29 04:59:22;;;;;;;3.75;3.45;;;5.60;46.30;;;;;;20461;6926;118314;-82
2022/01/29 05:01:48;;;;;;;3.30;3.10;;;5.30;46.90;;;;;;20400;6926;117978;-82
2022/01/29 05:04:13;;;;;;;4.30;4.00;;;5.00;47.40;;;;;;20490;6920;116510;-81
2022/01/29 05:06:39;;;;;;;4.80;4.10;;;4.80;47.80;;;;;;20283;6920;313142;-81
2022/01/29 05:09:08;;;;;;;4.95;4.45;;;4.90;47.70;;;;;;20270;6920;282079;-84
2022/01/29 05:11:31;;;;;;;6.73;4.40;;;5.20;47.00;;;;;;20487;6920;117397;-81
2022/01/29 05:13:57;;;;;;;6.77;6.17;;;5.20;46.90;;;;;;20309;6911;314866;-81
2022/01/29 05:27:15;;;;;;;6.67;3.80;;;4.70;48.20;;;;;;20526;6911;126388;-81
2022/01/29 05:29:41;;;;;;;3.63;3.33;;;4.50;48.30;;;;;;20309;6911;282240;-82
2022/01/29 05:32:06;;;;;;;4.28;3.30;;;4.70;48.20;;;;;;20526;6911;117512;-81
2022/01/29 05:34:32;;;;;;;2.90;2.70;;;4.80;48.00;;;;;;20509;6911;117473;-81
2022/01/29 05:36:57;;;;;;;3.67;2.92;;;4.70;48.10;;;;;;20505;6911;145558;-81
2022/01/29 05:39:24;;;;;;;3.75;3.05;;;4.60;48.30;;;;;;20318;6911;340094;-81
2022/01/29 05:41:49;;;;;;;3.15;2.95;;;4.90;48.30;;;;;;20525;6911;117584;-81
2022/01/29 05:44:14;;;;;;;2.55;2.45;;;4.90;48.00;;;;;;20524;6911;117854;-82
2022/01/29 05:46:41;;;;;;;2.87;2.67;;;4.80;48.40;;;;;;20530;6911;117623;-81
2022/01/29 05:49:06;;;;;;;3.30;3.00;;;4.70;48.30;;;;;;20370;6911;117602;-81
2022/01/29 05:51:32;;;;;;;3.00;2.80;;;4.60;48.40;;;;;;20522;6911;117660;-82
2022/01/29 05:53:57;;;;;;;3.58;3.28;;;4.60;48.70;;;;;;20530;6911;117234;-82
2022/01/29 05:56:23;;;;;;;3.80;3.50;;;4.50;48.80;;;;;;20310;6911;342151;-82
2022/01/29 05:58:48;;;;;;;3.40;3.10;;;4.70;48.40;;;;;;20507;6909;118376;-81
2022/01/29 06:01:14;;;;;;;3.28;3.08;;;4.80;48.20;;;;;;20531;6910;117721;-81
2022/01/29 06:03:41;;;;;;;4.15;3.08;;;4.80;48.40;;;;;;20532;6911;117429;-82
2022/01/29 06:06:07;;;;;;;3.27;2.97;;;4.60;48.80;;;;;;20522;6911;117939;-83
2022/01/29 06:08:33;;;;;;;3.80;3.50;;;4.60;48.70;;;;;;20531;6911;117932;-84
2022/01/29 06:10:58;;;;;;;5.00;3.00;;;4.50;48.80;;;;;;20507;6911;120558;-83
2022/01/29 06:13:24;;;;;;;3.85;3.55;;;4.50;49.10;;;;;;20318;6911;315858;-83
2022/01/29 06:15:49;;;;;;;4.10;3.70;;;4.70;48.90;;;;;;20315;6911;340330;-82
2022/01/29 06:18:17;;;;;;;3.62;3.33;;;5.10;48.10;;;;;;20521;6911;120454;-82
2022/01/29 06:20:41;;;;;;;3.40;3.10;;;5.20;47.90;;;;;;20512;6911;119149;-83
2022/01/29 06:23:06;;;;;;;3.50;3.30;;;5.00;48.10;;;;;;20357;6911;117888;-82
2022/01/29 06:25:32;;;;;;;4.03;3.50;;;4.80;48.30;;;;;;20297;6911;310842;-83
2022/01/29 06:27:57;;;;;;;3.80;3.50;;;5.00;48.30;;;;;;20504;6911;117310;-82
2022/01/29 06:30:23;;;;;;;3.85;3.40;;;5.00;48.10;;;;;;20506;6911;117555;-83
2022/01/29 06:32:48;;;;;;;4.60;3.60;;;4.80;48.20;;;;;;20532;6911;118155;-84
2022/01/29 06:35:14;;;;;;;4.17;3.83;;;4.70;48.50;;;;;;20315;6911;309708;-82
2022/01/29 06:37:40;;;;;;;4.45;4.15;;;4.90;48.70;;;;;;20304;6911;338389;-82
2022/01/29 06:40:05;;;;;;;3.87;3.58;;;5.20;48.20;;;;;;20520;6911;117623;-82
2022/01/29 06:42:31;;;;;;;3.87;3.43;;;5.20;47.90;;;;;;20533;6911;68090;-84
2022/01/29 06:44:57;;;;;;;3.35;3.12;;;5.00;48.20;;;;;;20511;6911;147056;-82
2022/01/29 06:47:23;;;;;;;3.70;3.50;;;4.90;48.60;;;;;;20313;6911;334645;-82
2022/01/29 06:49:49;;;;;;;3.57;3.27;;;4.90;48.50;;;;;;20529;6911;117576;-85
2022/01/29 06:52:14;;;;;;;3.67;3.25;;;5.00;48.40;;;;;;20315;6911;309490;-83
2022/01/29 06:54:40;;;;;;;3.30;3.10;;;5.10;48.10;;;;;;20316;6911;312187;-83
2022/01/29 06:57:05;;;;;;;3.60;3.30;;;5.50;47.50;;;;;;20320;6911;285104;-81
2022/01/29 06:59:31;;;;;;;2.77;2.67;;;5.80;46.70;;;;;;20529;6911;118913;-83
2022/01/29 07:01:56;;;;;;;2.60;2.33;;;5.70;46.70;;;;;;20529;6911;119613;-81
2022/01/29 07:04:24;;;;;;;3.27;2.97;;;5.40;47.20;;;;;;20311;6911;344343;-82
2022/01/29 07:06:50;;;;;;;3.03;2.77;;;5.50;47.00;;;;;;20504;6911;117877;-81
2022/01/29 07:09:16;;;;;;;2.97;2.77;;;5.50;47.00;;;;;;20321;6911;281830;-81
2022/01/29 07:11:44;;;;;;;2.78;2.50;;;5.60;46.70;;;;;;20312;6909;282120;-83
2022/01/29 07:14:15;;;;;;;2.93;2.63;;;5.80;46.30;;;;;;20511;6911;119015;-81
2022/01/29 07:16:35;;;;;;;3.00;2.80;;;5.80;46.30;;;;;;20497;6911;117988;-81
2022/01/29 07:19:00;;;;;;;3.00;2.58;;;5.60;46.70;;;;;;20510;6911;117956;-83
2022/01/29 07:21:26;;;;;;;2.87;2.58;;;5.40;47.20;;;;;;20320;6911;310346;-81
2022/01/29 07:23:51;;;;;;;3.10;2.80;;;5.50;47.30;;;;;;20316;6911;343043;-81
2022/01/29 07:26:17;;;;;;;3.22;2.92;;;5.90;46.30;;;;;;20322;6911;311158;-81
2022/01/29 07:28:43;;;;;;;3.03;2.73;;;6.40;45.10;;;;;;20304;6911;309745;-85
2022/01/29 07:31:09;;;;;;;2.67;2.50;;;6.30;45.10;;;;;;20315;6911;323678;-83
2022/01/29 07:33:34;;;;;;;4.00;2.85;;;6.50;44.60;;;;;;20525;6911;119405;-82
2022/01/29 07:36:00;;;;;;;3.00;2.75;;;6.40;44.80;;;;;;20530;6911;120025;-84
2022/01/29 07:38:27;;;;;;;2.77;2.57;;;6.10;45.30;;;;;;20338;6911;329630;-81
2022/01/29 07:40:52;;;;;;;2.77;2.57;;;6.10;45.30;;;;;;20523;6911;118234;-82
2022/01/29 07:43:18;;;;;;;2.90;2.70;;;6.00;45.50;;;;;;20341;6911;313800;-82
2022/01/29 07:45:44;;;;;;;2.70;2.50;;;6.10;45.50;;;;;;20552;6911;116581;-82
2022/01/29 07:48:10;;;;;;;2.97;2.78;;;6.20;46.60;;;;;;20330;6911;339859;-82
2022/01/29 07:50:35;;;;;;;2.93;2.50;;;6.10;45.80;;;;;;20530;6911;117625;-81
2022/01/29 07:53:01;;;;;;;2.95;2.75;;;6.10;45.90;;;;;;20492;6911;118708;-86
2022/01/29 07:55:27;;;;;;;2.72;2.60;;;5.90;46.20;;;;;;20536;6911;117433;-85
2022/01/29 07:57:52;;;;;;;3.35;3.08;;;5.70;46.50;;;;;;20320;6911;310679;-83
2022/01/29 08:00:18;;;;;;;3.10;2.90;;;5.80;46.50;;;;;;20534;6911;118084;-85
2022/01/29 08:02:43;;;;;;;3.83;3.33;;;5.80;46.50;;;;;;20332;6911;311792;-84
2022/01/29 08:05:10;;;;;;;3.83;3.53;;;6.00;46.60;;;;;;20345;6911;279226;-84
2022/01/29 08:07:34;;;;;;;3.77;3.47;;;6.30;46.30;;;;;;20335;6911;311007;-84
2022/01/29 08:10:01;;;;;;;3.92;3.53;;;6.50;45.90;;;;;;20345;6911;311388;-83
2022/01/29 08:12:26;;;;;;;3.70;3.40;;;6.60;45.20;;;;;;20543;6911;121055;-84
2022/01/29 08:14:52;;;;;;;3.10;2.90;;;6.50;45.40;;;;;;20523;6911;119318;-84
2022/01/29 08:17:18;;;;;;;3.37;3.07;;;6.20;45.90;;;;;;20541;6911;119996;-84
2022/01/29 08:19:44;;;;;;;2.93;2.80;;;6.00;46.50;;;;;;20539;6911;119838;-83
2022/01/29 08:22:09;;;;;;;2.80;2.60;;;5.80;46.90;;;;;;20538;6909;119129;-83
2022/01/29 08:24:36;;;;;;;4.95;3.03;;;5.50;47.50;;;;;;20538;6910;117232;-83
2022/01/29 08:27:01;;;;;;;3.28;3.08;;;5.50;47.40;;;;;;20310;6911;342870;-83
2022/01/29 08:29:27;;;;;;;3.03;2.83;;;5.70;47.40;;;;;;20524;6911;117426;-82
2022/01/29 08:31:52;;;;;;;3.08;2.78;;;5.80;47.20;;;;;;20514;6911;116552;-84
2022/01/29 08:34:19;;;;;;;3.40;3.20;;;5.60;46.90;;;;;;20266;6911;119570;-84
2022/01/29 08:36:44;;;;;;;3.20;3.00;;;5.60;47.40;;;;;;20421;6911;119790;-82
2022/01/29 08:39:10;;;;;;;3.17;2.97;;;5.60;47.70;;;;;;20547;6911;116756;-85
2022/01/29 08:41:37;;;;;;;3.67;3.00;;;5.50;47.80;;;;;;20540;6911;118061;-83
2022/01/29 08:44:03;;;;;;;3.57;3.27;;;5.40;47.90;;;;;;20328;6911;309069;-85
2022/01/29 08:46:30;;;;;;;3.37;3.17;;;5.60;47.40;;;;;;20557;6911;118286;-84
2022/01/29 08:48:55;;;;;;;3.90;3.60;;;5.70;47.80;;;;;;20329;6911;340220;-82
2022/01/29 08:51:21;;;;;;;3.53;3.22;;;6.30;46.60;;;;;;20354;6911;308665;-83
2022/01/29 08:53:47;;;;;;;3.50;3.20;;;6.20;46.50;;;;;;20565;6911;117792;-83
2022/01/29 08:56:15;;;;;;;3.50;3.20;;;6.30;46.60;;;;;;20330;6911;309638;-84
2022/01/29 08:58:38;;;;;;;3.40;3.10;;;6.40;46.20;;;;;;20532;6911;117975;-83
2022/01/29 09:01:07;;;;;;;3.93;3.60;;;6.50;46.30;;;;;;20304;6911;342817;-83
2022/01/29 09:03:29;;;;;;;3.97;3.67;;;6.70;46.00;;;;;;20312;6911;307879;-84
2022/01/29 09:05:55;;;;;;;3.90;3.60;;;7.00;45.50;;;;;;20328;6911;279724;-83
2022/01/29 09:08:20;;;;;;;3.62;3.40;;;7.30;44.80;;;;;;20531;6911;117113;-82
2022/01/29 09:10:46;;;;;;;3.42;3.12;;;7.30;45.00;;;;;;20510;6911;122183;-85
2022/01/29 09:13:12;;;;;;;4.60;4.30;;;7.10;45.40;;;;;;20315;6911;339126;-83
2022/01/29 09:15:38;;;;;;;4.82;4.20;;;7.40;43.60;;;;;;20314;6911;326812;-82
2022/01/29 09:18:04;;;;;;;4.17;3.87;;;7.40;43.60;;;;;;20530;6911;117237;-84
2022/01/29 09:20:30;;;;;;;4.73;4.33;;;7.30;43.90;;;;;;20319;6911;313475;-83
2022/01/29 09:22:56;;;;;;;4.80;4.50;;;7.40;43.50;;;;;;20302;6911;296112;-85
2022/01/29 09:25:21;;;;;;;4.47;4.03;;;7.60;43.40;;;;;;20532;6911;118420;-85
2022/01/29 09:27:47;;;;;;;4.93;4.53;;;7.60;43.60;;;;;;20531;6911;121530;-83
2022/01/29 09:30:13;;;;;;;4.40;4.10;;;7.40;44.10;;;;;;20523;6911;117355;-85
2022/01/29 09:32:38;;;;;;;4.25;3.85;;;7.20;44.60;;;;;;20521;6911;113408;-85
2022/01/29 09:35:04;;;;;;;5.18;4.78;;;7.10;44.80;;;;;;20302;6910;309732;-84
2022/01/29 09:37:30;;;;;;;5.20;4.73;;;7.10;44.20;;;;;;20544;6911;117436;-83
2022/01/29 09:39:56;;;;;;;5.78;5.37;;;7.20;44.50;;;;;;20334;6911;347622;-83
2022/01/29 09:42:22;;;;;;;6.20;5.63;;;7.40;44.30;;;;;;20336;6911;297584;-85
2022/01/29 09:44:47;;;;;;;5.68;5.20;;;7.70;43.40;;;;;;20308;6911;311527;-85
2022/01/29 09:47:13;;;;;;;5.90;5.00;;;7.90;43.00;;;;;;20530;6911;121868;-85
2022/01/29 09:49:38;;;;;;;4.70;4.40;;;7.70;43.20;;;;;;20551;6911;123309;-84
2022/01/29 09:52:05;;;;;;;4.97;4.68;;;7.20;44.20;;;;;;20538;6911;120561;-84
2022/01/29 09:54:30;;;;;;;5.70;5.30;;;7.20;44.20;;;;;;20309;6911;280016;-82
2022/01/29 09:56:56;;;;;;;6.50;6.00;;;7.20;44.40;;;;;;20303;6911;280496;-84
2022/01/29 09:59:21;;;;;;;6.35;5.87;;;7.50;44.40;;;;;;20270;6911;313615;-86
2022/01/29 10:01:49;;;;;;;5.30;4.90;;;8.00;44.70;;;;;;20523;6911;116648;-83
2022/01/29 10:04:14;;;;;;;6.27;5.80;;;8.00;44.70;;;;;;20327;6911;302591;-84
2022/01/29 10:06:43;;;;;;;7.40;5.30;;;8.20;44.00;;;;;;20532;6911;117408;-82
2022/01/29 10:09:09;;;;;;;4.85;4.55;;;8.10;43.80;;;;;;20498;6911;123372;-82
2022/01/29 10:11:31;;;;;;;6.37;5.87;;;7.90;44.10;;;;;;20302;6911;343545;-81
2022/01/29 10:14:00;;;;;;;4.50;4.18;;;7.80;44.20;;;;;;20520;6911;114043;-84
2022/01/29 10:16:26;;;;;;;5.57;5.07;;;7.70;44.40;;;;;;20303;6911;283463;-83
2022/01/29 10:19:05;;;;;;;5.28;4.87;;;7.80;45.10;;;;;;20510;6911;117586;-83
2022/01/29 10:21:45;;;;;;;4.60;4.20;;;7.70;45.10;;;;;;20513;6911;117629;-82
2022/01/29 10:24:15;;;;;;;5.43;5.03;;;7.50;45.40;;;;;;20318;6911;281207;-82
2022/01/29 10:26:44;;;;;;;5.70;5.30;;;7.70;45.40;;;;;;20325;6911;280422;-82
2022/01/29 10:29:09;;;;;;;5.07;4.77;;;8.00;45.20;;;;;;20534;6911;117465;-83
2022/01/29 10:31:38;;;;;;;6.03;5.63;;;7.90;45.10;;;;;;20307;6911;301964;-84
2022/01/29 10:34:03;;;;;;;5.47;5.03;;;8.00;45.60;;;;;;20320;6911;310262;-85
2022/01/29 10:36:29;;;;;;;5.75;5.07;;;8.30;45.80;;;;;;20498;6911;123781;-84
2022/01/29 10:38:55;;;;;;;4.28;4.03;;;8.40;45.80;;;;;;20523;6911;122242;-83
2022/01/29 10:41:25;;;;;;;5.03;4.62;;;8.20;46.00;;;;;;20510;6911;117607;-89
2022/01/29 10:44:14;;;;;;;4.87;4.57;;;8.20;46.30;;;;;;20587;6911;116999;-91
2022/01/29 10:46:38;;;;;;;4.17;3.87;;;8.10;46.50;;;;;;20574;6909;117631;-85
2022/01/29 10:49:03;;;;;;;5.05;4.65;;;8.10;46.80;;;;;;20559;6911;117461;-87
2022/01/29 10:51:29;;;;;;;5.40;5.10;;;8.10;46.80;;;;;;20355;6911;312236;-89
2022/01/29 10:53:55;;;;;;;5.13;4.83;;;8.10;46.80;;;;;;20346;6911;298097;-85
2022/01/29 10:56:21;;;;;;;4.70;4.30;;;8.40;46.50;;;;;;20432;6911;117444;-86
2022/01/29 10:58:50;;;;;;;4.10;3.80;;;8.40;45.80;;;;;;20466;6911;117528;-88
2022/01/29 11:01:16;;;;;;;4.55;4.25;;;8.20;46.00;;;;;;20323;6911;280121;-84
2022/01/29 11:03:41;;;;;;;3.80;3.50;;;8.20;46.30;;;;;;20518;6911;117549;-88
2022/01/29 11:06:11;;;;;;;5.00;4.70;;;8.20;46.50;;;;;;20336;6911;293138;-86
2022/01/29 11:08:36;;;;;;;4.03;3.73;;;8.40;46.40;;;;;;20554;6911;117393;-83
2022/01/29 11:11:02;;;;;;;4.62;4.32;;;8.40;46.30;;;;;;20320;6911;310080;-84
2022/01/29 11:13:29;;;;;;;3.93;3.13;;;8.60;46.40;;;;;;20529;6911;117869;-84
2022/01/29 11:15:54;;;;;;;3.10;2.90;;;8.80;46.20;;;;;;20534;6911;117333;-85
2022/01/29 11:18:20;;;;;;;2.90;2.72;;;8.70;46.10;;;;;;20543;6911;118747;-84
2022/01/29 11:20:46;;;;;;;3.90;3.60;;;8.60;46.30;;;;;;20310;6911;325331;-84
2022/01/29 11:23:11;;;;;;;3.70;3.40;;;8.70;46.30;;;;;;20329;6911;280463;-85
2022/01/29 11:25:37;;;;;;;5.15;2.97;;;9.10;45.90;;;;;;20541;6911;120414;-82
2022/01/29 11:28:11;;;;;;;3.00;2.80;;;9.20;45.80;;;;;;20534;6911;117736;-82
2022/01/29 11:30:37;;;;;;;2.83;2.72;;;9.10;45.80;;;;;;20317;6911;280190;-82
2022/01/29 11:33:06;;;;;;;2.60;2.40;;;9.10;45.80;;;;;;20312;6911;281268;-82
2022/01/29 11:35:31;;;;;;;2.30;2.20;;;9.40;45.70;;;;;;20341;6911;283413;-83
2022/01/29 11:38:07;;;;;;;1.83;1.77;;;9.60;45.20;;;;;;20541;6911;118751;-84
2022/01/29 11:40:59;;;;;;;2.17;2.00;;;9.50;45.20;;;;;;20312;6911;281658;-86
2022/01/29 11:43:28;;;;;;;2.33;2.12;;;9.60;45.60;;;;;;20317;6911;283415;-85
2022/01/29 11:46:11;;;;;;;2.37;2.28;;;9.80;44.90;;;;;;20310;6911;280623;-84
2022/01/29 11:48:34;;;;;;;2.20;2.00;;;9.90;44.20;;;;;;20312;6911;288288;-84
2022/01/29 11:51:01;;;;;;;1.63;1.53;;;10.00;43.10;;;;;;20300;6911;284354;-82
2022/01/29 11:53:27;;;;;;;2.10;2.00;;;10.10;42.80;;;;;;20308;6911;339164;-86
2022/01/29 11:55:52;;;;;;;1.87;1.77;;;10.20;42.40;;;;;;20429;6911;118041;-84
2022/01/29 11:58:26;;;;;;;1.70;1.60;;;10.00;42.80;;;;;;20536;6909;118264;-84
2022/01/29 12:00:53;;;;;;;1.80;1.70;;;9.80;44.40;;;;;;20493;6911;117951;-83
2022/01/29 12:03:36;;;;;;;1.80;1.70;;;9.70;44.90;;;;;;20541;6911;118453;-85
2022/01/29 12:06:28;;;;;;;1.30;1.30;;;9.60;45.10;;;;;;20537;6911;118528;-85
2022/01/29 12:08:57;;;;;;;1.50;1.40;;;9.50;45.10;;;;;;20513;6911;117684;-86
2022/01/29 12:11:23;;;;;;;1.60;1.50;;;9.40;45.10;;;;;;20520;6911;117596;-85
2022/01/29 12:14:16;;;;;;;2.27;1.70;;;9.30;45.40;;;;;;20537;6911;120199;-85
2022/01/29 12:16:50;;;;;;;1.90;1.80;;;9.20;45.50;;;;;;20346;6911;282895;-84
2022/01/29 12:19:33;;;;;;;1.70;1.60;;;9.40;44.90;;;;;;20326;6911;298706;-85
2022/01/29 12:21:59;;;;;;;1.70;1.60;;;9.80;44.30;;;;;;20326;6911;281060;-84
2022/01/29 12:24:25;;;;;;;1.50;1.50;;;10.10;43.00;;;;;;20544;6911;117883;-85
2022/01/29 12:26:56;;;;;;;1.60;1.50;;;10.00;42.90;;;;;;20314;6911;310231;-84
2022/01/29 12:29:21;;;;;;;1.87;1.63;;;10.10;43.10;;;;;;20540;6911;118407;-85
2022/01/29 12:31:47;;;;;;;1.50;1.40;;;10.10;43.50;;;;;;20321;6911;310394;-84
2022/01/29 12:34:14;;;;;;;1.40;1.40;;;10.10;43.50;;;;;;20288;6911;310573;-85
2022/01/29 12:36:40;;;;;;;1.47;1.40;;;10.40;43.10;;;;;;20309;6911;309546;-85
2022/01/29 12:39:06;;;;;;;1.80;1.70;;;10.60;42.70;;;;;;20262;6911;281014;-85
2022/01/29 12:41:37;;;;;;;1.55;1.50;;;10.70;42.20;;;;;;20318;6911;313753;-85
2022/01/29 12:44:04;;;;;;;1.60;1.50;;;10.80;41.90;;;;;;20527;6911;119249;-84
2022/01/29 12:46:26;;;;;;;1.40;1.30;;;10.60;42.10;;;;;;20542;6911;116727;-85
2022/01/29 12:49:02;;;;;;;1.80;1.70;;;10.20;42.70;;;;;;20264;6911;316711;-87
2022/01/29 12:51:27;;;;;;;1.55;1.45;;;10.10;43.80;;;;;;20305;6911;340247;-83
2022/01/29 12:53:56;;;;;;;1.63;1.53;;;10.30;43.20;;;;;;20542;6911;69658;-86
2022/01/29 12:56:21;;;;;;;1.37;1.30;;;10.10;43.20;;;;;;20516;6911;117990;-85